METAR AND TAF INFORMATION
METAR FOR CYYZ
ADDS - METARS form results

(2225 UTC 24 April 2018)
Data provider http://aviationweather.gov/adds/metars/
 
METAR text: CYYZ 242218Z 14006KT 15SM -RA OVC042 10/04 A3009 RMK SC8 SLP195
Conditions at: CYYZ (TORONTO/PEARSON , ON, CA) observed 2218 UTC 24 April 2018
Temperature: 10.0°C (50°F)
Dewpoint: 4.0°C (39°F) [RH = 66%]
Pressure (altimeter): 30.09 inches Hg (1019.0 mb)
[Sea-level pressure: 1019.5 mb]
Winds: from the SE (140 degrees) at 7 MPH (6 knots; 3.1 m/s)
Visibility: 15 miles (24 km)
Ceiling: 4200 feet AGL
Clouds: overcast cloud deck at 4200 feet AGL
Weather: -RA  (light rain)

METAR text: CYYZ 242200Z 15007KT 15SM OVC042 10/04 A3009 RMK SC8 SLP195
Conditions at: CYYZ (TORONTO/PEARSON , ON, CA) observed 2200 UTC 24 April 2018
Temperature: 10.0°C (50°F)
Dewpoint: 4.0°C (39°F) [RH = 66%]
Pressure (altimeter): 30.09 inches Hg (1019.0 mb)
[Sea-level pressure: 1019.5 mb]
Winds: from the SSE (150 degrees) at 8 MPH (7 knots; 3.6 m/s)
Visibility: 15 miles (24 km)
Ceiling: 4200 feet AGL
Clouds: overcast cloud deck at 4200 feet AGL
Weather: no significant weather observed at this time

Forecast for: CYYZ (TORONTO/PEARSON , ON, CA)
Text: TAF CYYZ 242038Z 2421/2524 19007KT P6SM SCT050 OVC080
Forecast period: 2100 to 2300 UTC 24 April 2018
Forecast type: FROM: standard forecast or significant change
Winds: from the S (190 degrees) at 8 MPH (7 knots; 3.6 m/s)
Visibility: 6 or more miles (10+ km)
Ceiling: 8000 feet AGL
Clouds: scattered clouds at 5000 feet AGL
overcast cloud deck at 8000 feet AGL
Weather: no significant weather forecast for this period
Forecast for: CYYZ (TORONTO/PEARSON , ON, CA)
Text: TAF CYYZ 242038Z 2421/2524 19007KT P6SM SCT050 OVC080
Forecast period: 2100 to 2300 UTC 24 April 2018
Forecast type: FROM: standard forecast or significant change
Winds: from the S (190 degrees) at 8 MPH (7 knots; 3.6 m/s)
Visibility: 6 or more miles (10+ km)
Ceiling: 8000 feet AGL
Clouds: scattered clouds at 5000 feet AGL
overcast cloud deck at 8000 feet AGL
Weather: no significant weather forecast for this period
Forecast for: CYYZ (TORONTO/PEARSON , ON, CA)
Text: TAF CYYZ 242038Z 2421/2524 19007KT P6SM SCT050 OVC080
Forecast period: 2300 UTC 24 April 2018 to 0300 UTC 25 April 2018
Forecast type: FROM: standard forecast or significant change
Winds: from the ESE (120 degrees) at 7 MPH (6 knots; 3.1 m/s)
Visibility: 6 or more miles (10+ km)
Ceiling: 4000 feet AGL
Clouds: overcast cloud deck at 4000 feet AGL
Weather: no significant weather forecast for this period
Forecast for: CYYZ (TORONTO/PEARSON , ON, CA)
Text: TAF CYYZ 242038Z 2421/2524 19007KT P6SM SCT050 OVC080
Forecast period: 2300 UTC 24 April 2018 to 0300 UTC 25 April 2018
Forecast type: FROM: standard forecast or significant change
Winds: from the ESE (120 degrees) at 7 MPH (6 knots; 3.1 m/s)
Visibility: 6 or more miles (10+ km)
Ceiling: 4000 feet AGL
Clouds: overcast cloud deck at 4000 feet AGL
Weather: no significant weather forecast for this period
Forecast for: CYYZ (TORONTO/PEARSON , ON, CA)
Text: TAF CYYZ 242038Z 2421/2524 19007KT P6SM SCT050 OVC080
Forecast period: 2300 UTC 24 April 2018 to 0300 UTC 25 April 2018
Forecast type: TEMPORARY: The following changes expected for less than half the time period
Visibility: 6 or more miles (10+ km)
Weather: -SHRA  (light rain showers)
Forecast for: CYYZ (TORONTO/PEARSON , ON, CA)
Text: TAF CYYZ 242038Z 2421/2524 19007KT P6SM SCT050 OVC080
Forecast period: 2300 UTC 24 April 2018 to 0300 UTC 25 April 2018
Forecast type: TEMPORARY: The following changes expected for less than half the time period
Visibility: 6 or more miles (10+ km)
Weather: -SHRA  (light rain showers)
Forecast for: CYYZ (TORONTO/PEARSON , ON, CA)
Text: TAF CYYZ 242038Z 2421/2524 19007KT P6SM SCT050 OVC080
Forecast period: 0300 to 0900 UTC 25 April 2018
Forecast type: FROM: standard forecast or significant change
Winds: from the E (100 degrees) at 6 MPH (5 knots; 2.6 m/s)
Visibility: 6 miles (10 km)
Ceiling: 2000 feet AGL
Clouds: scattered clouds at 500 feet AGL
overcast cloud deck at 2000 feet AGL
Weather: -RA BR  (light rain, mist)
Forecast for: CYYZ (TORONTO/PEARSON , ON, CA)
Text: TAF CYYZ 242038Z 2421/2524 19007KT P6SM SCT050 OVC080
Forecast period: 0300 to 0900 UTC 25 April 2018
Forecast type: FROM: standard forecast or significant change
Winds: from the E (100 degrees) at 6 MPH (5 knots; 2.6 m/s)
Visibility: 6 miles (10 km)
Ceiling: 2000 feet AGL
Clouds: scattered clouds at 500 feet AGL
overcast cloud deck at 2000 feet AGL
Weather: -RA BR  (light rain, mist)
Forecast for: CYYZ (TORONTO/PEARSON , ON, CA)
Text: TAF CYYZ 242038Z 2421/2524 19007KT P6SM SCT050 OVC080
Forecast period: 0300 to 0900 UTC 25 April 2018
Forecast type: TEMPORARY: The following changes expected for less than half the time period
Visibility: 3 miles (5 km)
Ceiling: 500 feet AGL
Clouds: broken clouds at 500 feet AGL
overcast cloud deck at 1200 feet AGL
Weather: -RA BR  (light rain, mist)
Forecast for: CYYZ (TORONTO/PEARSON , ON, CA)
Text: TAF CYYZ 242038Z 2421/2524 19007KT P6SM SCT050 OVC080
Forecast period: 0300 to 0900 UTC 25 April 2018
Forecast type: TEMPORARY: The following changes expected for less than half the time period
Visibility: 3 miles (5 km)
Ceiling: 500 feet AGL
Clouds: broken clouds at 500 feet AGL
overcast cloud deck at 1200 feet AGL
Weather: -RA BR  (light rain, mist)
Forecast for: CYYZ (TORONTO/PEARSON , ON, CA)
Text: TAF CYYZ 242038Z 2421/2524 19007KT P6SM SCT050 OVC080
Forecast period: 0900 to 1800 UTC 25 April 2018
Forecast type: FROM: standard forecast or significant change
Winds: from the E (90 degrees) at 7 MPH (6 knots; 3.1 m/s)
Visibility: 3 miles (5 km)
Ceiling: 500 feet AGL
Clouds: overcast cloud deck at 500 feet AGL
Weather: -SHRA BR  (light rain showers, mist)
Forecast for: CYYZ (TORONTO/PEARSON , ON, CA)
Text: TAF CYYZ 242038Z 2421/2524 19007KT P6SM SCT050 OVC080
Forecast period: 0900 to 1800 UTC 25 April 2018
Forecast type: FROM: standard forecast or significant change
Winds: from the E (90 degrees) at 7 MPH (6 knots; 3.1 m/s)
Visibility: 3 miles (5 km)
Ceiling: 500 feet AGL
Clouds: overcast cloud deck at 500 feet AGL
Weather: -SHRA BR  (light rain showers, mist)
Forecast for: CYYZ (TORONTO/PEARSON , ON, CA)
Text: TAF CYYZ 242038Z 2421/2524 19007KT P6SM SCT050 OVC080
Forecast period: 1800 UTC 25 April 2018 to 0000 UTC 26 April 2018
Forecast type: FROM: standard forecast or significant change
Winds: from the ENE (70 degrees) at 6 MPH (5 knots; 2.6 m/s)
Visibility: 5 miles (8 km)
Ceiling: 800 feet AGL
Clouds: broken clouds at 800 feet AGL
overcast cloud deck at 1200 feet AGL
Weather: -RA BR  (light rain, mist)
Forecast for: CYYZ (TORONTO/PEARSON , ON, CA)
Text: TAF CYYZ 242038Z 2421/2524 19007KT P6SM SCT050 OVC080
Forecast period: 1800 UTC 25 April 2018 to 0000 UTC 26 April 2018
Forecast type: FROM: standard forecast or significant change
Winds: from the ENE (70 degrees) at 6 MPH (5 knots; 2.6 m/s)
Visibility: 5 miles (8 km)
Ceiling: 800 feet AGL
Clouds: broken clouds at 800 feet AGL
overcast cloud deck at 1200 feet AGL
Weather: -RA BR  (light rain, mist)

 AIRPORT MAP

 RUNWAY INFORMATION
Runway 05 Runway length 11120 ft Runway width 200 ft
Runway elevation 564 ft Runway displaced threshold 135 ft Runway heading 47
Runway 23 Runway length 11120 ft Runway width 200 ft
Runway elevation 560 ft Runway displaced threshold 485 ft Runway heading 227
Runway 06L Runway length 9697 ft Runway width 200 ft
Runway elevation 529 ft Runway displaced threshold 0 ft Runway heading 47
Runway 24R Runway length 9697 ft Runway width 200 ft
Runway elevation 546 ft Runway displaced threshold 197 ft Runway heading 227
Runway 06R Runway length 9000 ft Runway width 200 ft
Runway elevation 525 ft Runway displaced threshold 0 ft Runway heading 47
Runway 24L Runway length 9000 ft Runway width 200 ft
Runway elevation 547 ft Runway displaced threshold 0 ft Runway heading 227
Runway 15L Runway length 11050 ft Runway width 200 ft
Runway elevation 557 ft Runway displaced threshold 0 ft Runway heading 137
Runway 33R Runway length 11050 ft Runway width 200 ft
Runway elevation 544 ft Runway displaced threshold 0 ft Runway heading 317
Runway 15R Runway length 9088 ft Runway width 200 ft
Runway elevation 551 ft Runway displaced threshold 588 ft Runway heading 137
Runway 33L Runway length 9088 ft Runway width 200 ft
Runway elevation 544 ft Runway displaced threshold 588 ft Runway heading 317

 AIRPORT FREQUENCIES
Type ARR Name APP Frequency 124.475 MHZ
Type ATIS Name ATIS Frequency 112.15 MHZ
Type CLD Name CLNC DEL Frequency 121.3 MHZ
Type DEP Name DEP Frequency 127.575 MHZ
Type GND Name GND Frequency 118 MHZ
Type RCO Name LONDON RDO Frequency 123.275 MHZ
Type RMP Name APN ADVSY Frequency 122.075 MHZ
Type TWR Name TWR Frequency 118.35 MHZ
Type VFR ADV Name Toronto Ce Frequency 119.3 MHZ

 AIRPORT NEAR NAVIGATION AIDS
Type DME Name Toronto Frequency 109100 KHZ
Type DME Name Toronto Frequency 109300 KHZ
Type DME Name Toronto Frequency 110950 KHZ
Type VOR-DME Name Pearson Frequency 116550 KHZ
Type VOR-DME Name Toronto Frequency 112150 KHZ
Type NDB Name Rexdale Frequency 385 KHZ
Type NDB Name Britannia Frequency 236 KHZ
Type NDB Name Meadowvale Frequency 341 KHZ
Type NDB Name Woodhill Frequency 403 KHZ
Type NDB Name Queensway Frequency 368 KHZ



Powered by Virtual Airlines Manager [v2.6.2]